sensor_id;sensor_type;location;lat;lon;timestamp;temperature;humidity
82243;DHT22;71844;51.528;4.442;2024-01-25T00:01:05;8.50;81.40
82243;DHT22;71844;51.528;4.442;2024-01-25T00:03:33;8.40;81.30
82243;DHT22;71844;51.528;4.442;2024-01-25T00:06:00;8.40;81.20
82243;DHT22;71844;51.528;4.442;2024-01-25T00:08:26;8.30;81.10
82243;DHT22;71844;51.528;4.442;2024-01-25T00:10:53;8.30;81.20
82243;DHT22;71844;51.528;4.442;2024-01-25T00:13:20;8.30;81.00
82243;DHT22;71844;51.528;4.442;2024-01-25T00:15:47;8.20;81.20
82243;DHT22;71844;51.528;4.442;2024-01-25T00:18:15;8.10;81.20
82243;DHT22;71844;51.528;4.442;2024-01-25T00:20:42;8.10;81.10
82243;DHT22;71844;51.528;4.442;2024-01-25T00:23:08;8.00;81.20
82243;DHT22;71844;51.528;4.442;2024-01-25T00:25:35;8.00;81.30
82243;DHT22;71844;51.528;4.442;2024-01-25T00:28:02;7.90;81.50
82243;DHT22;71844;51.528;4.442;2024-01-25T00:30:30;7.90;81.40
82243;DHT22;71844;51.528;4.442;2024-01-25T00:32:57;7.80;81.40
82243;DHT22;71844;51.528;4.442;2024-01-25T00:35:25;7.80;81.40
82243;DHT22;71844;51.528;4.442;2024-01-25T00:37:52;7.80;81.50
82243;DHT22;71844;51.528;4.442;2024-01-25T00:40:19;7.70;81.40
82243;DHT22;71844;51.528;4.442;2024-01-25T00:42:47;7.70;81.40
82243;DHT22;71844;51.528;4.442;2024-01-25T00:45:21;7.60;81.40
82243;DHT22;71844;51.528;4.442;2024-01-25T00:47:49;7.60;81.50
82243;DHT22;71844;51.528;4.442;2024-01-25T00:50:17;7.60;81.30
82243;DHT22;71844;51.528;4.442;2024-01-25T00:52:47;7.50;81.30
82243;DHT22;71844;51.528;4.442;2024-01-25T00:55:16;7.50;81.30
82243;DHT22;71844;51.528;4.442;2024-01-25T00:57:44;7.40;81.50
82243;DHT22;71844;51.528;4.442;2024-01-25T01:00:11;7.40;81.50
82243;DHT22;71844;51.528;4.442;2024-01-25T01:02:43;7.40;81.50
82243;DHT22;71844;51.528;4.442;2024-01-25T01:05:11;7.30;81.60
82243;DHT22;71844;51.528;4.442;2024-01-25T01:07:39;7.30;81.60
82243;DHT22;71844;51.528;4.442;2024-01-25T01:12:57;7.30;81.80
82243;DHT22;71844;51.528;4.442;2024-01-25T01:15:24;7.30;81.80
82243;DHT22;71844;51.528;4.442;2024-01-25T01:17:50;7.20;81.60
82243;DHT22;71844;51.528;4.442;2024-01-25T01:20:18;7.20;81.80
82243;DHT22;71844;51.528;4.442;2024-01-25T01:22:45;7.10;81.80
82243;DHT22;71844;51.528;4.442;2024-01-25T01:25:12;7.10;81.70
82243;DHT22;71844;51.528;4.442;2024-01-25T01:27:39;7.10;81.90
82243;DHT22;71844;51.528;4.442;2024-01-25T01:30:06;7.00;82.10
82243;DHT22;71844;51.528;4.442;2024-01-25T01:32:38;7.00;82.10
82243;DHT22;71844;51.528;4.442;2024-01-25T01:35:05;7.00;81.90
82243;DHT22;71844;51.528;4.442;2024-01-25T01:37:32;6.90;82.00
82243;DHT22;71844;51.528;4.442;2024-01-25T01:39:59;6.90;82.00
82243;DHT22;71844;51.528;4.442;2024-01-25T01:42:27;6.90;82.10
82243;DHT22;71844;51.528;4.442;2024-01-25T01:44:54;6.80;82.10
82243;DHT22;71844;51.528;4.442;2024-01-25T01:47:22;6.80;82.20
82243;DHT22;71844;51.528;4.442;2024-01-25T01:49:49;6.70;82.10
82243;DHT22;71844;51.528;4.442;2024-01-25T01:52:17;6.70;82.20
82243;DHT22;71844;51.528;4.442;2024-01-25T01:54:46;6.70;82.10
82243;DHT22;71844;51.528;4.442;2024-01-25T01:57:13;6.70;82.10
82243;DHT22;71844;51.528;4.442;2024-01-25T01:59:40;6.60;82.10
82243;DHT22;71844;51.528;4.442;2024-01-25T02:02:07;6.50;82.20
82243;DHT22;71844;51.528;4.442;2024-01-25T02:04:34;6.50;82.20
82243;DHT22;71844;51.528;4.442;2024-01-25T02:07:01;6.40;82.30
82243;DHT22;71844;51.528;4.442;2024-01-25T02:09:28;6.40;82.30
82243;DHT22;71844;51.528;4.442;2024-01-25T02:12:00;6.30;82.40
82243;DHT22;71844;51.528;4.442;2024-01-25T02:14:28;6.30;82.40
82243;DHT22;71844;51.528;4.442;2024-01-25T02:16:54;6.30;82.70
82243;DHT22;71844;51.528;4.442;2024-01-25T02:19:21;6.20;82.70
82243;DHT22;71844;51.528;4.442;2024-01-25T02:21:49;6.20;82.80
82243;DHT22;71844;51.528;4.442;2024-01-25T02:24:17;6.20;82.80
82243;DHT22;71844;51.528;4.442;2024-01-25T02:26:45;6.10;83.10
82243;DHT22;71844;51.528;4.442;2024-01-25T02:29:12;6.10;83.70
82243;DHT22;71844;51.528;4.442;2024-01-25T02:31:38;6.10;83.90
82243;DHT22;71844;51.528;4.442;2024-01-25T02:34:05;6.10;83.80
82243;DHT22;71844;51.528;4.442;2024-01-25T02:36:32;6.10;83.60
82243;DHT22;71844;51.528;4.442;2024-01-25T02:38:59;6.10;83.70
82243;DHT22;71844;51.528;4.442;2024-01-25T02:41:29;6.10;83.70
82243;DHT22;71844;51.528;4.442;2024-01-25T02:43:56;6.10;83.70
82243;DHT22;71844;51.528;4.442;2024-01-25T02:46:23;6.10;83.80
82243;DHT22;71844;51.528;4.442;2024-01-25T02:48:50;6.10;83.80
82243;DHT22;71844;51.528;4.442;2024-01-25T02:51:17;6.10;83.80
82243;DHT22;71844;51.528;4.442;2024-01-25T02:53:44;6.10;83.90
82243;DHT22;71844;51.528;4.442;2024-01-25T02:56:10;6.00;83.90
82243;DHT22;71844;51.528;4.442;2024-01-25T02:58:37;6.00;83.70
82243;DHT22;71844;51.528;4.442;2024-01-25T03:01:04;6.00;83.60
82243;DHT22;71844;51.528;4.442;2024-01-25T03:03:31;6.00;83.50
82243;DHT22;71844;51.528;4.442;2024-01-25T03:05:58;5.90;83.40
82243;DHT22;71844;51.528;4.442;2024-01-25T03:08:25;5.80;83.40
82243;DHT22;71844;51.528;4.442;2024-01-25T03:10:51;5.80;83.60
82243;DHT22;71844;51.528;4.442;2024-01-25T03:13:18;5.80;83.60
82243;DHT22;71844;51.528;4.442;2024-01-25T03:15:45;5.70;83.60
82243;DHT22;71844;51.528;4.442;2024-01-25T03:18:12;5.70;83.60
82243;DHT22;71844;51.528;4.442;2024-01-25T03:20:39;5.70;83.60
82243;DHT22;71844;51.528;4.442;2024-01-25T03:23:06;5.60;83.60
82243;DHT22;71844;51.528;4.442;2024-01-25T03:25:33;5.60;83.70
82243;DHT22;71844;51.528;4.442;2024-01-25T03:28:00;5.60;83.80
82243;DHT22;71844;51.528;4.442;2024-01-25T03:30:27;5.50;83.90
82243;DHT22;71844;51.528;4.442;2024-01-25T03:32:53;5.50;83.90
82243;DHT22;71844;51.528;4.442;2024-01-25T03:35:20;5.50;83.80
82243;DHT22;71844;51.528;4.442;2024-01-25T03:37:47;5.40;83.90
82243;DHT22;71844;51.528;4.442;2024-01-25T03:40:14;5.40;83.90
82243;DHT22;71844;51.528;4.442;2024-01-25T03:42:41;5.40;84.00
82243;DHT22;71844;51.528;4.442;2024-01-25T03:45:16;5.40;84.10
82243;DHT22;71844;51.528;4.442;2024-01-25T03:47:43;5.30;84.20
82243;DHT22;71844;51.528;4.442;2024-01-25T03:50:11;5.30;84.30
82243;DHT22;71844;51.528;4.442;2024-01-25T03:52:38;5.30;84.30
82243;DHT22;71844;51.528;4.442;2024-01-25T03:55:05;5.20;84.30
82243;DHT22;71844;51.528;4.442;2024-01-25T03:57:32;5.20;84.10
82243;DHT22;71844;51.528;4.442;2024-01-25T03:59:59;5.20;84.20
82243;DHT22;71844;51.528;4.442;2024-01-25T04:02:26;5.20;84.40
82243;DHT22;71844;51.528;4.442;2024-01-25T04:04:52;5.10;84.50
82243;DHT22;71844;51.528;4.442;2024-01-25T04:07:19;5.10;84.60
82243;DHT22;71844;51.528;4.442;2024-01-25T04:09:46;5.10;84.50
82243;DHT22;71844;51.528;4.442;2024-01-25T04:12:13;5.10;84.40
82243;DHT22;71844;51.528;4.442;2024-01-25T04:14:40;5.10;84.40
82243;DHT22;71844;51.528;4.442;2024-01-25T04:17:07;5.00;84.60
82243;DHT22;71844;51.528;4.442;2024-01-25T04:19:35;5.00;84.80
82243;DHT22;71844;51.528;4.442;2024-01-25T04:22:02;5.00;84.70
82243;DHT22;71844;51.528;4.442;2024-01-25T04:24:29;5.00;84.60
82243;DHT22;71844;51.528;4.442;2024-01-25T04:26:56;4.90;84.50
82243;DHT22;71844;51.528;4.442;2024-01-25T04:29:23;4.90;84.80
82243;DHT22;71844;51.528;4.442;2024-01-25T04:31:50;4.90;84.90
82243;DHT22;71844;51.528;4.442;2024-01-25T04:34:17;4.90;85.10
82243;DHT22;71844;51.528;4.442;2024-01-25T04:36:44;4.90;85.00
82243;DHT22;71844;51.528;4.442;2024-01-25T04:39:11;4.90;84.80
82243;DHT22;71844;51.528;4.442;2024-01-25T04:41:37;4.90;84.90
82243;DHT22;71844;51.528;4.442;2024-01-25T04:44:04;4.80;84.90
82243;DHT22;71844;51.528;4.442;2024-01-25T04:46:31;4.80;84.90
82243;DHT22;71844;51.528;4.442;2024-01-25T04:49:03;4.80;84.90
82243;DHT22;71844;51.528;4.442;2024-01-25T04:51:30;4.80;85.00
82243;DHT22;71844;51.528;4.442;2024-01-25T04:53:57;4.80;84.90
82243;DHT22;71844;51.528;4.442;2024-01-25T04:56:24;4.80;84.90
82243;DHT22;71844;51.528;4.442;2024-01-25T04:58:51;4.70;85.00
82243;DHT22;71844;51.528;4.442;2024-01-25T05:01:18;4.70;85.10
82243;DHT22;71844;51.528;4.442;2024-01-25T05:03:44;4.70;85.20
82243;DHT22;71844;51.528;4.442;2024-01-25T05:06:11;4.70;85.20
82243;DHT22;71844;51.528;4.442;2024-01-25T05:08:38;4.70;85.10
82243;DHT22;71844;51.528;4.442;2024-01-25T05:11:07;4.70;84.90
82243;DHT22;71844;51.528;4.442;2024-01-25T05:13:35;4.60;85.00
82243;DHT22;71844;51.528;4.442;2024-01-25T05:16:02;4.60;85.00
82243;DHT22;71844;51.528;4.442;2024-01-25T05:18:29;4.60;85.20
82243;DHT22;71844;51.528;4.442;2024-01-25T05:20:56;4.50;85.30
82243;DHT22;71844;51.528;4.442;2024-01-25T05:23:24;4.50;85.30
82243;DHT22;71844;51.528;4.442;2024-01-25T05:25:52;4.50;85.30
82243;DHT22;71844;51.528;4.442;2024-01-25T05:28:19;4.50;85.20
82243;DHT22;71844;51.528;4.442;2024-01-25T05:30:45;4.50;85.10
82243;DHT22;71844;51.528;4.442;2024-01-25T05:33:12;4.50;85.20
82243;DHT22;71844;51.528;4.442;2024-01-25T05:35:39;4.40;85.10
82243;DHT22;71844;51.528;4.442;2024-01-25T05:38:06;4.40;85.20
82243;DHT22;71844;51.528;4.442;2024-01-25T05:40:36;4.40;85.30
82243;DHT22;71844;51.528;4.442;2024-01-25T05:43:02;4.40;85.10
82243;DHT22;71844;51.528;4.442;2024-01-25T05:45:30;4.30;85.00
82243;DHT22;71844;51.528;4.442;2024-01-25T05:47:56;4.30;85.00
82243;DHT22;71844;51.528;4.442;2024-01-25T05:50:23;4.30;85.10
82243;DHT22;71844;51.528;4.442;2024-01-25T05:52:50;4.20;85.20
82243;DHT22;71844;51.528;4.442;2024-01-25T05:55:17;4.20;85.30
82243;DHT22;71844;51.528;4.442;2024-01-25T05:57:44;4.20;85.30
82243;DHT22;71844;51.528;4.442;2024-01-25T06:00:12;4.20;85.20
82243;DHT22;71844;51.528;4.442;2024-01-25T06:02:40;4.20;85.20
82243;DHT22;71844;51.528;4.442;2024-01-25T06:05:07;4.20;85.10
82243;DHT22;71844;51.528;4.442;2024-01-25T06:07:34;4.10;85.10
82243;DHT22;71844;51.528;4.442;2024-01-25T06:10:02;4.10;85.30
82243;DHT22;71844;51.528;4.442;2024-01-25T06:12:29;4.00;85.40
82243;DHT22;71844;51.528;4.442;2024-01-25T06:14:56;4.00;85.40
82243;DHT22;71844;51.528;4.442;2024-01-25T06:17:23;4.00;85.50
82243;DHT22;71844;51.528;4.442;2024-01-25T06:19:50;4.00;85.50
82243;DHT22;71844;51.528;4.442;2024-01-25T06:22:17;4.00;85.60
82243;DHT22;71844;51.528;4.442;2024-01-25T06:24:44;4.00;85.60
82243;DHT22;71844;51.528;4.442;2024-01-25T06:27:11;4.00;85.80
82243;DHT22;71844;51.528;4.442;2024-01-25T06:29:38;4.00;85.70
82243;DHT22;71844;51.528;4.442;2024-01-25T06:32:05;4.00;85.80
82243;DHT22;71844;51.528;4.442;2024-01-25T06:34:39;4.00;85.90
82243;DHT22;71844;51.528;4.442;2024-01-25T06:37:06;4.00;86.10
82243;DHT22;71844;51.528;4.442;2024-01-25T06:39:33;4.00;86.20
82243;DHT22;71844;51.528;4.442;2024-01-25T06:42:01;4.00;86.20
82243;DHT22;71844;51.528;4.442;2024-01-25T06:44:28;4.00;86.40
82243;DHT22;71844;51.528;4.442;2024-01-25T06:46:54;4.00;86.60
82243;DHT22;71844;51.528;4.442;2024-01-25T06:49:21;4.10;86.70
82243;DHT22;71844;51.528;4.442;2024-01-25T06:51:48;4.10;86.80
82243;DHT22;71844;51.528;4.442;2024-01-25T06:54:16;4.10;86.70
82243;DHT22;71844;51.528;4.442;2024-01-25T06:56:43;4.10;86.70
82243;DHT22;71844;51.528;4.442;2024-01-25T06:59:09;4.10;86.70
82243;DHT22;71844;51.528;4.442;2024-01-25T07:01:36;4.10;86.70
82243;DHT22;71844;51.528;4.442;2024-01-25T07:04:04;4.10;86.70
82243;DHT22;71844;51.528;4.442;2024-01-25T07:06:31;4.10;86.70
82243;DHT22;71844;51.528;4.442;2024-01-25T07:09:05;4.10;86.70
82243;DHT22;71844;51.528;4.442;2024-01-25T07:11:32;4.10;86.80
82243;DHT22;71844;51.528;4.442;2024-01-25T07:13:59;4.10;86.80
82243;DHT22;71844;51.528;4.442;2024-01-25T07:16:26;4.10;86.90
82243;DHT22;71844;51.528;4.442;2024-01-25T07:18:53;4.10;87.10
82243;DHT22;71844;51.528;4.442;2024-01-25T07:21:20;4.10;87.20
82243;DHT22;71844;51.528;4.442;2024-01-25T07:23:47;4.10;87.20
82243;DHT22;71844;51.528;4.442;2024-01-25T07:26:20;4.20;87.40
82243;DHT22;71844;51.528;4.442;2024-01-25T07:28:47;4.20;87.40
82243;DHT22;71844;51.528;4.442;2024-01-25T07:31:14;4.20;87.50
82243;DHT22;71844;51.528;4.442;2024-01-25T07:33:41;4.20;87.60
82243;DHT22;71844;51.528;4.442;2024-01-25T07:36:08;4.30;87.60
82243;DHT22;71844;51.528;4.442;2024-01-25T07:38:35;4.30;87.70
82243;DHT22;71844;51.528;4.442;2024-01-25T07:41:02;4.30;87.70
82243;DHT22;71844;51.528;4.442;2024-01-25T07:43:28;4.30;87.70
82243;DHT22;71844;51.528;4.442;2024-01-25T07:45:55;4.40;87.80
82243;DHT22;71844;51.528;4.442;2024-01-25T07:48:22;4.40;87.90
82243;DHT22;71844;51.528;4.442;2024-01-25T07:50:49;4.40;87.80
82243;DHT22;71844;51.528;4.442;2024-01-25T07:53:16;4.40;87.80
82243;DHT22;71844;51.528;4.442;2024-01-25T07:55:44;4.40;87.80
82243;DHT22;71844;51.528;4.442;2024-01-25T07:58:13;4.50;87.90
82243;DHT22;71844;51.528;4.442;2024-01-25T08:00:40;4.50;87.80
82243;DHT22;71844;51.528;4.442;2024-01-25T08:03:07;4.50;88.00
82243;DHT22;71844;51.528;4.442;2024-01-25T08:05:34;4.60;88.00
82243;DHT22;71844;51.528;4.442;2024-01-25T08:08:13;4.60;87.90
82243;DHT22;71844;51.528;4.442;2024-01-25T08:10:40;4.60;88.00
82243;DHT22;71844;51.528;4.442;2024-01-25T08:13:07;4.60;88.00
82243;DHT22;71844;51.528;4.442;2024-01-25T08:15:34;4.70;88.10
82243;DHT22;71844;51.528;4.442;2024-01-25T08:18:01;4.70;88.20
82243;DHT22;71844;51.528;4.442;2024-01-25T08:20:29;4.70;88.20
82243;DHT22;71844;51.528;4.442;2024-01-25T08:22:56;4.80;88.30
82243;DHT22;71844;51.528;4.442;2024-01-25T08:25:23;4.80;88.30
82243;DHT22;71844;51.528;4.442;2024-01-25T08:27:51;4.80;88.30
82243;DHT22;71844;51.528;4.442;2024-01-25T08:30:18;4.80;88.30
82243;DHT22;71844;51.528;4.442;2024-01-25T08:32:44;4.90;88.40
82243;DHT22;71844;51.528;4.442;2024-01-25T08:35:11;4.90;88.50
82243;DHT22;71844;51.528;4.442;2024-01-25T08:37:38;4.90;88.50
82243;DHT22;71844;51.528;4.442;2024-01-25T08:40:07;4.90;88.50
82243;DHT22;71844;51.528;4.442;2024-01-25T08:42:35;5.00;88.60
82243;DHT22;71844;51.528;4.442;2024-01-25T08:45:02;5.00;88.60
82243;DHT22;71844;51.528;4.442;2024-01-25T08:47:29;5.10;88.70
82243;DHT22;71844;51.528;4.442;2024-01-25T08:49:58;5.10;88.90
82243;DHT22;71844;51.528;4.442;2024-01-25T08:52:25;5.20;88.90
82243;DHT22;71844;51.528;4.442;2024-01-25T08:54:52;5.20;89.00
82243;DHT22;71844;51.528;4.442;2024-01-25T08:57:19;5.30;88.90
82243;DHT22;71844;51.528;4.442;2024-01-25T08:59:46;5.30;89.00
82243;DHT22;71844;51.528;4.442;2024-01-25T09:02:13;5.30;89.10
82243;DHT22;71844;51.528;4.442;2024-01-25T09:04:40;5.30;89.20
82243;DHT22;71844;51.528;4.442;2024-01-25T09:07:10;5.40;89.40
82243;DHT22;71844;51.528;4.442;2024-01-25T09:09:37;5.40;89.50
82243;DHT22;71844;51.528;4.442;2024-01-25T09:12:06;5.50;89.50
82243;DHT22;71844;51.528;4.442;2024-01-25T09:14:34;5.60;89.50
82243;DHT22;71844;51.528;4.442;2024-01-25T09:17:02;5.70;89.40
82243;DHT22;71844;51.528;4.442;2024-01-25T09:19:29;5.70;89.40
82243;DHT22;71844;51.528;4.442;2024-01-25T09:24:28;5.80;89.20
82243;DHT22;71844;51.528;4.442;2024-01-25T09:26:54;5.80;89.30
82243;DHT22;71844;51.528;4.442;2024-01-25T09:29:22;5.90;89.30
82243;DHT22;71844;51.528;4.442;2024-01-25T09:31:50;5.90;89.30
82243;DHT22;71844;51.528;4.442;2024-01-25T09:34:17;6.00;89.40
82243;DHT22;71844;51.528;4.442;2024-01-25T09:36:45;6.10;89.40
82243;DHT22;71844;51.528;4.442;2024-01-25T09:39:12;6.20;89.40
82243;DHT22;71844;51.528;4.442;2024-01-25T09:41:40;6.20;89.40
82243;DHT22;71844;51.528;4.442;2024-01-25T09:44:11;6.30;89.30
82243;DHT22;71844;51.528;4.442;2024-01-25T09:46:40;6.30;89.30
82243;DHT22;71844;51.528;4.442;2024-01-25T09:49:08;6.30;89.30
82243;DHT22;71844;51.528;4.442;2024-01-25T09:51:40;6.40;89.40
82243;DHT22;71844;51.528;4.442;2024-01-25T09:54:08;6.40;89.30
82243;DHT22;71844;51.528;4.442;2024-01-25T09:56:36;6.50;89.40
82243;DHT22;71844;51.528;4.442;2024-01-25T09:59:03;6.50;89.30
82243;DHT22;71844;51.528;4.442;2024-01-25T10:01:31;6.50;89.40
82243;DHT22;71844;51.528;4.442;2024-01-25T10:03:58;6.60;89.40
82243;DHT22;71844;51.528;4.442;2024-01-25T10:06:26;6.60;89.40
82243;DHT22;71844;51.528;4.442;2024-01-25T10:08:53;6.60;89.40
82243;DHT22;71844;51.528;4.442;2024-01-25T10:11:20;6.70;89.40
82243;DHT22;71844;51.528;4.442;2024-01-25T10:13:47;6.70;89.40
82243;DHT22;71844;51.528;4.442;2024-01-25T10:16:17;6.70;89.40
82243;DHT22;71844;51.528;4.442;2024-01-25T10:18:46;6.80;89.40
82243;DHT22;71844;51.528;4.442;2024-01-25T10:21:14;6.80;89.40
82243;DHT22;71844;51.528;4.442;2024-01-25T10:23:44;6.80;89.40
82243;DHT22;71844;51.528;4.442;2024-01-25T10:26:16;6.80;89.40
82243;DHT22;71844;51.528;4.442;2024-01-25T10:28:51;6.90;89.40
82243;DHT22;71844;51.528;4.442;2024-01-25T10:31:23;6.90;89.40
82243;DHT22;71844;51.528;4.442;2024-01-25T10:33:52;6.90;89.40
82243;DHT22;71844;51.528;4.442;2024-01-25T10:36:21;7.00;89.40
82243;DHT22;71844;51.528;4.442;2024-01-25T10:38:49;7.00;89.50
82243;DHT22;71844;51.528;4.442;2024-01-25T10:41:19;7.10;89.50
82243;DHT22;71844;51.528;4.442;2024-01-25T10:43:46;7.10;89.50
82243;DHT22;71844;51.528;4.442;2024-01-25T10:46:13;7.10;89.50
82243;DHT22;71844;51.528;4.442;2024-01-25T10:48:42;7.20;89.50
82243;DHT22;71844;51.528;4.442;2024-01-25T10:51:09;7.20;89.60
82243;DHT22;71844;51.528;4.442;2024-01-25T10:53:40;7.30;89.50
82243;DHT22;71844;51.528;4.442;2024-01-25T10:56:06;7.30;89.50
82243;DHT22;71844;51.528;4.442;2024-01-25T10:58:34;7.40;89.50
82243;DHT22;71844;51.528;4.442;2024-01-25T11:01:11;7.40;89.40
82243;DHT22;71844;51.528;4.442;2024-01-25T11:03:42;7.40;89.50
82243;DHT22;71844;51.528;4.442;2024-01-25T11:06:12;7.50;89.50
82243;DHT22;71844;51.528;4.442;2024-01-25T11:08:40;7.50;89.40
82243;DHT22;71844;51.528;4.442;2024-01-25T11:11:08;7.60;89.50
82243;DHT22;71844;51.528;4.442;2024-01-25T11:13:39;7.60;89.50
82243;DHT22;71844;51.528;4.442;2024-01-25T11:16:31;7.60;89.40
82243;DHT22;71844;51.528;4.442;2024-01-25T11:18:59;7.70;89.30
82243;DHT22;71844;51.528;4.442;2024-01-25T11:21:43;7.70;89.40
82243;DHT22;71844;51.528;4.442;2024-01-25T11:24:20;7.80;89.30
82243;DHT22;71844;51.528;4.442;2024-01-25T11:26:48;7.80;89.30
82243;DHT22;71844;51.528;4.442;2024-01-25T11:29:17;7.80;89.20
82243;DHT22;71844;51.528;4.442;2024-01-25T11:31:45;7.90;89.20
82243;DHT22;71844;51.528;4.442;2024-01-25T11:34:13;7.90;89.10
82243;DHT22;71844;51.528;4.442;2024-01-25T11:36:42;7.90;89.10
82243;DHT22;71844;51.528;4.442;2024-01-25T11:39:10;7.90;89.00
82243;DHT22;71844;51.528;4.442;2024-01-25T11:41:38;7.90;89.00
82243;DHT22;71844;51.528;4.442;2024-01-25T11:44:05;8.00;89.10
82243;DHT22;71844;51.528;4.442;2024-01-25T11:46:32;8.00;89.00
82243;DHT22;71844;51.528;4.442;2024-01-25T11:49:04;8.00;89.00
82243;DHT22;71844;51.528;4.442;2024-01-25T11:51:31;8.10;88.90
82243;DHT22;71844;51.528;4.442;2024-01-25T11:53:58;8.10;88.90
82243;DHT22;71844;51.528;4.442;2024-01-25T11:56:31;8.10;88.70
82243;DHT22;71844;51.528;4.442;2024-01-25T11:59:00;8.10;88.80
82243;DHT22;71844;51.528;4.442;2024-01-25T12:01:28;8.10;88.80
82243;DHT22;71844;51.528;4.442;2024-01-25T12:03:57;8.20;88.70
82243;DHT22;71844;51.528;4.442;2024-01-25T12:06:24;8.20;88.70
82243;DHT22;71844;51.528;4.442;2024-01-25T12:08:51;8.20;88.60
82243;DHT22;71844;51.528;4.442;2024-01-25T12:11:18;8.20;88.60
82243;DHT22;71844;51.528;4.442;2024-01-25T12:13:47;8.20;88.60
82243;DHT22;71844;51.528;4.442;2024-01-25T12:16:14;8.20;88.60
82243;DHT22;71844;51.528;4.442;2024-01-25T12:18:42;8.30;88.60
82243;DHT22;71844;51.528;4.442;2024-01-25T12:21:10;8.30;88.60
82243;DHT22;71844;51.528;4.442;2024-01-25T12:23:39;8.30;88.60
82243;DHT22;71844;51.528;4.442;2024-01-25T12:26:07;8.30;88.40
82243;DHT22;71844;51.528;4.442;2024-01-25T12:28:35;8.30;88.30
82243;DHT22;71844;51.528;4.442;2024-01-25T12:31:06;8.30;88.30
82243;DHT22;71844;51.528;4.442;2024-01-25T12:33:34;8.30;88.30
82243;DHT22;71844;51.528;4.442;2024-01-25T12:36:02;8.30;88.40
82243;DHT22;71844;51.528;4.442;2024-01-25T12:38:30;8.30;88.40
82243;DHT22;71844;51.528;4.442;2024-01-25T12:41:00;8.40;88.40
82243;DHT22;71844;51.528;4.442;2024-01-25T12:43:28;8.40;88.40
82243;DHT22;71844;51.528;4.442;2024-01-25T12:45:55;8.40;88.30
82243;DHT22;71844;51.528;4.442;2024-01-25T12:48:31;8.40;88.20
82243;DHT22;71844;51.528;4.442;2024-01-25T12:50:58;8.40;88.30
82243;DHT22;71844;51.528;4.442;2024-01-25T12:53:25;8.40;88.30
82243;DHT22;71844;51.528;4.442;2024-01-25T12:55:53;8.40;88.40
82243;DHT22;71844;51.528;4.442;2024-01-25T12:58:20;8.40;88.50
82243;DHT22;71844;51.528;4.442;2024-01-25T13:00:46;8.40;88.50
82243;DHT22;71844;51.528;4.442;2024-01-25T13:03:13;8.40;88.60
82243;DHT22;71844;51.528;4.442;2024-01-25T13:05:41;8.50;88.60
82243;DHT22;71844;51.528;4.442;2024-01-25T13:08:08;8.50;88.60
82243;DHT22;71844;51.528;4.442;2024-01-25T13:10:35;8.60;88.50
82243;DHT22;71844;51.528;4.442;2024-01-25T13:13:02;8.60;88.40
82243;DHT22;71844;51.528;4.442;2024-01-25T13:15:29;8.60;88.40
82243;DHT22;71844;51.528;4.442;2024-01-25T13:17:56;8.60;88.20
82243;DHT22;71844;51.528;4.442;2024-01-25T13:20:24;8.60;88.20
82243;DHT22;71844;51.528;4.442;2024-01-25T13:22:50;8.60;88.10
82243;DHT22;71844;51.528;4.442;2024-01-25T13:25:17;8.60;88.20
82243;DHT22;71844;51.528;4.442;2024-01-25T13:27:45;8.60;88.20
82243;DHT22;71844;51.528;4.442;2024-01-25T13:30:12;8.60;88.10
82243;DHT22;71844;51.528;4.442;2024-01-25T13:32:40;8.60;88.30
82243;DHT22;71844;51.528;4.442;2024-01-25T13:35:07;8.60;88.30
82243;DHT22;71844;51.528;4.442;2024-01-25T13:37:34;8.60;88.40
82243;DHT22;71844;51.528;4.442;2024-01-25T13:40:01;8.60;88.50
82243;DHT22;71844;51.528;4.442;2024-01-25T13:42:28;8.60;88.40
82243;DHT22;71844;51.528;4.442;2024-01-25T13:44:55;8.60;88.40
82243;DHT22;71844;51.528;4.442;2024-01-25T13:47:22;8.60;88.40
82243;DHT22;71844;51.528;4.442;2024-01-25T13:49:49;8.60;88.40
82243;DHT22;71844;51.528;4.442;2024-01-25T13:52:18;8.60;88.30
82243;DHT22;71844;51.528;4.442;2024-01-25T13:54:47;8.60;88.30
82243;DHT22;71844;51.528;4.442;2024-01-25T13:57:16;8.60;88.30
82243;DHT22;71844;51.528;4.442;2024-01-25T13:59:42;8.60;88.50
82243;DHT22;71844;51.528;4.442;2024-01-25T14:02:09;8.60;88.50
82243;DHT22;71844;51.528;4.442;2024-01-25T14:04:37;8.60;88.40
82243;DHT22;71844;51.528;4.442;2024-01-25T14:07:04;8.60;88.40
82243;DHT22;71844;51.528;4.442;2024-01-25T14:09:32;8.60;88.40
82243;DHT22;71844;51.528;4.442;2024-01-25T14:12:00;8.60;88.30
82243;DHT22;71844;51.528;4.442;2024-01-25T14:14:27;8.60;88.30
82243;DHT22;71844;51.528;4.442;2024-01-25T14:16:54;8.60;88.30
82243;DHT22;71844;51.528;4.442;2024-01-25T14:19:21;8.50;88.30
82243;DHT22;71844;51.528;4.442;2024-01-25T14:21:49;8.50;88.40
82243;DHT22;71844;51.528;4.442;2024-01-25T14:24:36;8.50;88.40
82243;DHT22;71844;51.528;4.442;2024-01-25T14:27:03;8.50;88.50
82243;DHT22;71844;51.528;4.442;2024-01-25T14:29:30;8.50;88.50
82243;DHT22;71844;51.528;4.442;2024-01-25T14:32:00;8.40;88.80
82243;DHT22;71844;51.528;4.442;2024-01-25T14:34:27;8.40;88.80
82243;DHT22;71844;51.528;4.442;2024-01-25T14:36:54;8.40;88.70
82243;DHT22;71844;51.528;4.442;2024-01-25T14:39:21;8.50;88.80
82243;DHT22;71844;51.528;4.442;2024-01-25T14:41:48;8.40;88.70
82243;DHT22;71844;51.528;4.442;2024-01-25T14:44:15;8.40;88.70
82243;DHT22;71844;51.528;4.442;2024-01-25T14:46:42;8.50;88.80
82243;DHT22;71844;51.528;4.442;2024-01-25T14:49:08;8.40;88.80
82243;DHT22;71844;51.528;4.442;2024-01-25T14:51:35;8.40;88.80
82243;DHT22;71844;51.528;4.442;2024-01-25T14:54:02;8.50;88.80
82243;DHT22;71844;51.528;4.442;2024-01-25T14:56:29;8.50;88.90
82243;DHT22;71844;51.528;4.442;2024-01-25T14:58:56;8.50;88.90
82243;DHT22;71844;51.528;4.442;2024-01-25T15:01:23;8.50;88.90
82243;DHT22;71844;51.528;4.442;2024-01-25T15:03:55;8.50;88.90
82243;DHT22;71844;51.528;4.442;2024-01-25T15:06:25;8.60;88.90
82243;DHT22;71844;51.528;4.442;2024-01-25T15:08:52;8.60;89.00
82243;DHT22;71844;51.528;4.442;2024-01-25T15:11:19;8.60;89.00
82243;DHT22;71844;51.528;4.442;2024-01-25T15:13:46;8.60;88.90
82243;DHT22;71844;51.528;4.442;2024-01-25T15:16:15;8.60;89.00
82243;DHT22;71844;51.528;4.442;2024-01-25T15:18:46;8.60;89.00
82243;DHT22;71844;51.528;4.442;2024-01-25T15:21:14;8.60;89.00
82243;DHT22;71844;51.528;4.442;2024-01-25T15:23:41;8.60;89.30
82243;DHT22;71844;51.528;4.442;2024-01-25T15:26:07;8.70;89.40
82243;DHT22;71844;51.528;4.442;2024-01-25T15:28:34;8.70;89.50
82243;DHT22;71844;51.528;4.442;2024-01-25T15:31:01;8.80;89.70
82243;DHT22;71844;51.528;4.442;2024-01-25T15:33:28;8.80;89.80
82243;DHT22;71844;51.528;4.442;2024-01-25T15:35:56;8.80;89.90
82243;DHT22;71844;51.528;4.442;2024-01-25T15:38:23;8.80;89.70
82243;DHT22;71844;51.528;4.442;2024-01-25T15:40:50;8.90;89.80
82243;DHT22;71844;51.528;4.442;2024-01-25T15:43:17;8.90;89.80
82243;DHT22;71844;51.528;4.442;2024-01-25T15:45:44;9.00;90.10
82243;DHT22;71844;51.528;4.442;2024-01-25T15:48:11;9.00;90.10
82243;DHT22;71844;51.528;4.442;2024-01-25T15:53:13;9.10;90.20
82243;DHT22;71844;51.528;4.442;2024-01-25T15:55:42;9.10;90.30